sensor_id;sensor_type;location;lat;lon;timestamp;pressure;altitude;pressure_sealevel;temperature
74915;BMP280;63475;45.140;-75.616;2023-04-15T00:00:26;100238.75;;;22.78
74915;BMP280;63475;45.140;-75.616;2023-04-15T00:01:28;100222.38;;;22.59
74915;BMP280;63475;45.140;-75.616;2023-04-15T00:02:31;100218.94;;;22.53
74915;BMP280;63475;45.140;-75.616;2023-04-15T00:03:32;100237.63;;;22.51
74915;BMP280;63475;45.140;-75.616;2023-04-15T00:04:33;100234.69;;;22.49
74915;BMP280;63475;45.140;-75.616;2023-04-15T00:05:36;100225.91;;;22.37
74915;BMP280;63475;45.140;-75.616;2023-04-15T00:06:37;100242.06;;;22.32
74915;BMP280;63475;45.140;-75.616;2023-04-15T00:07:41;100243.06;;;22.34
74915;BMP280;63475;45.140;-75.616;2023-04-15T00:08:42;100249.94;;;22.30
74915;BMP280;63475;45.140;-75.616;2023-04-15T00:09:43;100233.56;;;22.16
74915;BMP280;63475;45.140;-75.616;2023-04-15T00:10:44;100244.34;;;22.16
74915;BMP280;63475;45.140;-75.616;2023-04-15T00:11:46;100249.25;;;22.12
74915;BMP280;63475;45.140;-75.616;2023-04-15T00:12:46;100243.38;;;22.08
74915;BMP280;63475;45.140;-75.616;2023-04-15T00:13:47;100245.34;;;21.97
74915;BMP280;63475;45.140;-75.616;2023-04-15T00:14:48;100244.59;;;21.96
74915;BMP280;63475;45.140;-75.616;2023-04-15T00:15:50;100236.53;;;21.85
74915;BMP280;63475;45.140;-75.616;2023-04-15T00:16:51;100242.44;;;21.84
74915;BMP280;63475;45.140;-75.616;2023-04-15T00:17:55;100240.94;;;21.77
74915;BMP280;63475;45.140;-75.616;2023-04-15T00:18:56;100224.53;;;21.64
74915;BMP280;63475;45.140;-75.616;2023-04-15T00:19:57;100247.31;;;21.57
74915;BMP280;63475;45.140;-75.616;2023-04-15T00:20:59;100232.84;;;21.55
74915;BMP280;63475;45.140;-75.616;2023-04-15T00:22:00;100249.28;;;21.57
74915;BMP280;63475;45.140;-75.616;2023-04-15T00:23:01;100242.66;;;21.52
74915;BMP280;63475;45.140;-75.616;2023-04-15T00:24:03;100232.88;;;21.38
74915;BMP280;63475;45.140;-75.616;2023-04-15T00:25:04;100242.19;;;21.43
74915;BMP280;63475;45.140;-75.616;2023-04-15T00:26:05;100251.69;;;21.33
74915;BMP280;63475;45.140;-75.616;2023-04-15T00:27:06;100251.44;;;21.31
74915;BMP280;63475;45.140;-75.616;2023-04-15T00:28:08;100255.59;;;21.26
74915;BMP280;63475;45.140;-75.616;2023-04-15T00:29:09;100252.88;;;21.20
74915;BMP280;63475;45.140;-75.616;2023-04-15T00:30:10;100238.66;;;21.03
74915;BMP280;63475;45.140;-75.616;2023-04-15T00:31:11;100263.63;;;21.04
74915;BMP280;63475;45.140;-75.616;2023-04-15T00:32:12;100245.47;;;20.93
74915;BMP280;63475;45.140;-75.616;2023-04-15T00:33:13;100265.06;;;20.94
74915;BMP280;63475;45.140;-75.616;2023-04-15T00:34:16;100257.66;;;20.83
74915;BMP280;63475;45.140;-75.616;2023-04-15T00:35:17;100267.69;;;20.77
74915;BMP280;63475;45.140;-75.616;2023-04-15T00:36:18;100272.09;;;20.80
74915;BMP280;63475;45.140;-75.616;2023-04-15T00:37:19;100264.47;;;20.67
74915;BMP280;63475;45.140;-75.616;2023-04-15T00:38:20;100255.84;;;20.58
74915;BMP280;63475;45.140;-75.616;2023-04-15T00:39:21;100255.81;;;20.52
74915;BMP280;63475;45.140;-75.616;2023-04-15T00:40:23;100276.38;;;20.55
74915;BMP280;63475;45.140;-75.616;2023-04-15T00:41:24;100276.38;;;20.55
74915;BMP280;63475;45.140;-75.616;2023-04-15T00:42:25;100272.69;;;20.53
74915;BMP280;63475;45.140;-75.616;2023-04-15T00:43:27;100273.38;;;20.48
74915;BMP280;63475;45.140;-75.616;2023-04-15T00:44:29;100277.28;;;20.41
74915;BMP280;63475;45.140;-75.616;2023-04-15T00:45:30;100289.75;;;20.39
74915;BMP280;63475;45.140;-75.616;2023-04-15T00:46:32;100262.44;;;20.20
74915;BMP280;63475;45.140;-75.616;2023-04-15T00:47:35;100269.75;;;20.14
74915;BMP280;63475;45.140;-75.616;2023-04-15T00:48:37;100283.03;;;20.23
74915;BMP280;63475;45.140;-75.616;2023-04-15T00:49:38;100287.88;;;20.19
74915;BMP280;63475;45.140;-75.616;2023-04-15T00:50:39;100284.19;;;20.16
74915;BMP280;63475;45.140;-75.616;2023-04-15T00:51:40;100271.63;;;20.02
74915;BMP280;63475;45.140;-75.616;2023-04-15T00:52:41;100292.44;;;20.07
74915;BMP280;63475;45.140;-75.616;2023-04-15T00:53:42;100290.69;;;20.04
74915;BMP280;63475;45.140;-75.616;2023-04-15T00:54:43;100287.50;;;20.00
74915;BMP280;63475;45.140;-75.616;2023-04-15T00:55:44;100273.41;;;19.85
74915;BMP280;63475;45.140;-75.616;2023-04-15T00:56:45;100287.38;;;19.89
74915;BMP280;63475;45.140;-75.616;2023-04-15T00:57:47;100289.03;;;19.81
74915;BMP280;63475;45.140;-75.616;2023-04-15T00:58:48;100289.00;;;19.75
74915;BMP280;63475;45.140;-75.616;2023-04-15T00:59:50;100289.94;;;19.72
74915;BMP280;63475;45.140;-75.616;2023-04-15T01:00:52;100293.56;;;19.69
74915;BMP280;63475;45.140;-75.616;2023-04-15T01:01:54;100290.34;;;19.65
74915;BMP280;63475;45.140;-75.616;2023-04-15T01:02:55;100283.91;;;19.57
74915;BMP280;63475;45.140;-75.616;2023-04-15T01:03:57;100293.91;;;19.57
74915;BMP280;63475;45.140;-75.616;2023-04-15T01:04:58;100285.59;;;19.55
74915;BMP280;63475;45.140;-75.616;2023-04-15T01:05:59;100294.13;;;19.53
74915;BMP280;63475;45.140;-75.616;2023-04-15T01:07:00;100298.22;;;19.49
74915;BMP280;63475;45.140;-75.616;2023-04-15T01:08:02;100301.06;;;19.39
74915;BMP280;63475;45.140;-75.616;2023-04-15T01:09:03;100303.22;;;19.35
74915;BMP280;63475;45.140;-75.616;2023-04-15T01:10:04;100278.38;;;19.20
74915;BMP280;63475;45.140;-75.616;2023-04-15T01:11:06;100300.94;;;19.28
74915;BMP280;63475;45.140;-75.616;2023-04-15T01:12:09;100298.00;;;19.26
74915;BMP280;63475;45.140;-75.616;2023-04-15T01:13:11;100295.69;;;19.19
74915;BMP280;63475;45.140;-75.616;2023-04-15T01:14:12;100297.38;;;19.17
74915;BMP280;63475;45.140;-75.616;2023-04-15T01:15:13;100301.47;;;19.12
74915;BMP280;63475;45.140;-75.616;2023-04-15T01:16:15;100275.44;;;18.98
74915;BMP280;63475;45.140;-75.616;2023-04-15T01:17:17;100299.00;;;19.09
74915;BMP280;63475;45.140;-75.616;2023-04-15T01:18:19;100307.25;;;19.05
74915;BMP280;63475;45.140;-75.616;2023-04-15T01:19:20;100300.13;;;19.02
74915;BMP280;63475;45.140;-75.616;2023-04-15T01:20:21;100302.94;;;18.93
74915;BMP280;63475;45.140;-75.616;2023-04-15T01:21:22;100306.09;;;18.91
74915;BMP280;63475;45.140;-75.616;2023-04-15T01:22:25;100307.75;;;18.89
74915;BMP280;63475;45.140;-75.616;2023-04-15T01:23:26;100311.13;;;18.84
74915;BMP280;63475;45.140;-75.616;2023-04-15T01:24:29;100308.81;;;18.77
74915;BMP280;63475;45.140;-75.616;2023-04-15T01:25:32;100304.66;;;18.76
74915;BMP280;63475;45.140;-75.616;2023-04-15T01:26:36;100306.53;;;18.70
74915;BMP280;63475;45.140;-75.616;2023-04-15T01:27:38;100291.38;;;18.52
74915;BMP280;63475;45.140;-75.616;2023-04-15T01:28:42;100309.06;;;18.59
74915;BMP280;63475;45.140;-75.616;2023-04-15T01:29:43;100302.84;;;18.52
74915;BMP280;63475;45.140;-75.616;2023-04-15T01:30:43;100312.63;;;18.55
74915;BMP280;63475;45.140;-75.616;2023-04-15T01:31:50;100318.19;;;18.52
74915;BMP280;63475;45.140;-75.616;2023-04-15T01:32:52;100302.41;;;18.39
74915;BMP280;63475;45.140;-75.616;2023-04-15T01:33:53;100316.38;;;18.43
74915;BMP280;63475;45.140;-75.616;2023-04-15T01:34:54;100321.91;;;18.40
74915;BMP280;63475;45.140;-75.616;2023-04-15T01:35:55;100314.06;;;18.36
74915;BMP280;63475;45.140;-75.616;2023-04-15T01:36:56;100315.72;;;18.34
74915;BMP280;63475;45.140;-75.616;2023-04-15T01:38:04;100318.34;;;18.28
74915;BMP280;63475;45.140;-75.616;2023-04-15T01:39:05;100297.78;;;18.10
74915;BMP280;63475;45.140;-75.616;2023-04-15T01:40:07;100322.56;;;18.20
74915;BMP280;63475;45.140;-75.616;2023-04-15T01:41:08;100318.41;;;18.19
74915;BMP280;63475;45.140;-75.616;2023-04-15T01:42:09;100320.06;;;18.17
74915;BMP280;63475;45.140;-75.616;2023-04-15T01:43:10;100325.59;;;18.13
74915;BMP280;63475;45.140;-75.616;2023-04-15T01:44:11;100327.75;;;18.09
74915;BMP280;63475;45.140;-75.616;2023-04-15T01:45:12;100296.03;;;17.93
74915;BMP280;63475;45.140;-75.616;2023-04-15T01:46:13;100329.88;;;18.05
74915;BMP280;63475;45.140;-75.616;2023-04-15T01:47:14;100322.66;;;17.96
74915;BMP280;63475;45.140;-75.616;2023-04-15T01:48:15;100324.13;;;17.97
74915;BMP280;63475;45.140;-75.616;2023-04-15T01:49:16;100328.22;;;17.93
74915;BMP280;63475;45.140;-75.616;2023-04-15T01:50:17;100329.09;;;17.90
74915;BMP280;63475;45.140;-75.616;2023-04-15T01:51:18;100321.22;;;17.86
74915;BMP280;63475;45.140;-75.616;2023-04-15T01:52:19;100326.31;;;17.84
74915;BMP280;63475;45.140;-75.616;2023-04-15T01:53:20;100306.13;;;17.59
74915;BMP280;63475;45.140;-75.616;2023-04-15T01:54:21;100327.16;;;17.76
74915;BMP280;63475;45.140;-75.616;2023-04-15T01:55:22;100330.72;;;17.73
74915;BMP280;63475;45.140;-75.616;2023-04-15T01:56:23;100323.31;;;17.67
74915;BMP280;63475;45.140;-75.616;2023-04-15T01:57:24;100327.38;;;17.63
74915;BMP280;63475;45.140;-75.616;2023-04-15T01:58:25;100327.09;;;17.61
74915;BMP280;63475;45.140;-75.616;2023-04-15T01:59:27;100287.38;;;17.36
74915;BMP280;63475;45.140;-75.616;2023-04-15T02:00:28;100305.91;;;17.48
74915;BMP280;63475;45.140;-75.616;2023-04-15T02:01:32;100310.41;;;17.42
74915;BMP280;63475;45.140;-75.616;2023-04-15T02:02:33;100319.56;;;17.50
74915;BMP280;63475;45.140;-75.616;2023-04-15T02:03:34;100310.13;;;17.40
74915;BMP280;63475;45.140;-75.616;2023-04-15T02:04:35;100314.84;;;17.45
74915;BMP280;63475;45.140;-75.616;2023-04-15T02:05:36;100300.41;;;17.28
74915;BMP280;63475;45.140;-75.616;2023-04-15T02:06:36;100319.81;;;17.38
74915;BMP280;63475;45.140;-75.616;2023-04-15T02:07:37;100289.34;;;17.11
74915;BMP280;63475;45.140;-75.616;2023-04-15T02:08:38;100300.75;;;17.21
74915;BMP280;63475;45.140;-75.616;2023-04-15T02:09:39;100314.22;;;17.26
74915;BMP280;63475;45.140;-75.616;2023-04-15T02:10:40;100298.56;;;17.10
74915;BMP280;63475;45.140;-75.616;2023-04-15T02:11:41;100318.28;;;17.22
74915;BMP280;63475;45.140;-75.616;2023-04-15T02:12:42;100324.50;;;17.19
74915;BMP280;63475;45.140;-75.616;2023-04-15T02:13:43;100319.78;;;17.14
74915;BMP280;63475;45.140;-75.616;2023-04-15T02:14:44;100316.84;;;17.12
74915;BMP280;63475;45.140;-75.616;2023-04-15T02:15:49;100319.22;;;17.10
74915;BMP280;63475;45.140;-75.616;2023-04-15T02:16:50;100318.22;;;17.07
74915;BMP280;63475;45.140;-75.616;2023-04-15T02:17:51;100290.81;;;16.89
74915;BMP280;63475;45.140;-75.616;2023-04-15T02:18:54;100303.09;;;16.95
74915;BMP280;63475;45.140;-75.616;2023-04-15T02:19:55;100313.63;;;16.99
74915;BMP280;63475;45.140;-75.616;2023-04-15T02:20:56;100302.06;;;16.93
74915;BMP280;63475;45.140;-75.616;2023-04-15T02:21:58;100307.44;;;16.93
74915;BMP280;63475;45.140;-75.616;2023-04-15T02:22:59;100307.13;;;16.91
74915;BMP280;63475;45.140;-75.616;2023-04-15T02:24:01;100287.72;;;16.72
74915;BMP280;63475;45.140;-75.616;2023-04-15T02:25:02;100312.34;;;16.85
74915;BMP280;63475;45.140;-75.616;2023-04-15T02:26:03;100288.16;;;16.70
74915;BMP280;63475;45.140;-75.616;2023-04-15T02:27:04;100310.75;;;16.78
74915;BMP280;63475;45.140;-75.616;2023-04-15T02:28:05;100305.56;;;16.75
74915;BMP280;63475;45.140;-75.616;2023-04-15T02:29:06;100295.19;;;16.68
74915;BMP280;63475;45.140;-75.616;2023-04-15T02:30:07;100302.75;;;16.69
74915;BMP280;63475;45.140;-75.616;2023-04-15T02:31:08;100298.28;;;16.66
74915;BMP280;63475;45.140;-75.616;2023-04-15T02:32:10;100304.25;;;16.61
74915;BMP280;63475;45.140;-75.616;2023-04-15T02:33:11;100304.72;;;16.60
74915;BMP280;63475;45.140;-75.616;2023-04-15T02:34:12;100306.34;;;16.57
74915;BMP280;63475;45.140;-75.616;2023-04-15T02:35:13;100301.63;;;16.52
74915;BMP280;63475;45.140;-75.616;2023-04-15T02:36:14;100298.06;;;16.46
74915;BMP280;63475;45.140;-75.616;2023-04-15T02:37:15;100308.59;;;16.50
74915;BMP280;63475;45.140;-75.616;2023-04-15T02:38:16;100305.34;;;16.46
74915;BMP280;63475;45.140;-75.616;2023-04-15T02:39:17;100311.88;;;16.44
74915;BMP280;63475;45.140;-75.616;2023-04-15T02:40:18;100282.97;;;16.25
74915;BMP280;63475;45.140;-75.616;2023-04-15T02:41:19;100310.13;;;16.41
74915;BMP280;63475;45.140;-75.616;2023-04-15T02:42:22;100310.25;;;16.38
74915;BMP280;63475;45.140;-75.616;2023-04-15T02:43:27;100308.50;;;16.35
74915;BMP280;63475;45.140;-75.616;2023-04-15T02:44:28;100303.31;;;16.31
74915;BMP280;63475;45.140;-75.616;2023-04-15T02:45:28;100296.16;;;16.28
74915;BMP280;63475;45.140;-75.616;2023-04-15T02:46:30;100305.84;;;16.26
74915;BMP280;63475;45.140;-75.616;2023-04-15T02:47:31;100304.78;;;16.23
74915;BMP280;63475;45.140;-75.616;2023-04-15T02:48:32;100304.53;;;16.21
74915;BMP280;63475;45.140;-75.616;2023-04-15T02:49:33;100298.88;;;16.19
74915;BMP280;63475;45.140;-75.616;2023-04-15T02:50:34;100308.53;;;16.17
74915;BMP280;63475;45.140;-75.616;2023-04-15T02:51:37;100308.22;;;16.15
74915;BMP280;63475;45.140;-75.616;2023-04-15T02:52:41;100309.84;;;16.12
74915;BMP280;63475;45.140;-75.616;2023-04-15T02:53:42;100296.50;;;16.03
74915;BMP280;63475;45.140;-75.616;2023-04-15T02:54:43;100306.13;;;16.10
74915;BMP280;63475;45.140;-75.616;2023-04-15T02:55:45;100303.63;;;16.06
74915;BMP280;63475;45.140;-75.616;2023-04-15T02:56:46;100305.56;;;16.06
74915;BMP280;63475;45.140;-75.616;2023-04-15T02:57:46;100307.91;;;16.03
74915;BMP280;63475;45.140;-75.616;2023-04-15T02:58:47;100303.78;;;16.02
74915;BMP280;63475;45.140;-75.616;2023-04-15T02:59:50;100303.66;;;15.97
74915;BMP280;63475;45.140;-75.616;2023-04-15T03:00:51;100310.16;;;15.96
74915;BMP280;63475;45.140;-75.616;2023-04-15T03:01:51;100317.44;;;15.95
74915;BMP280;63475;45.140;-75.616;2023-04-15T03:02:58;100305.69;;;15.93
74915;BMP280;63475;45.140;-75.616;2023-04-15T03:03:59;100311.19;;;15.89
74915;BMP280;63475;45.140;-75.616;2023-04-15T03:05:00;100311.19;;;15.89
74915;BMP280;63475;45.140;-75.616;2023-04-15T03:06:01;100310.91;;;15.87
74915;BMP280;63475;45.140;-75.616;2023-04-15T03:07:02;100313.72;;;15.84
74915;BMP280;63475;45.140;-75.616;2023-04-15T03:08:03;100302.75;;;15.73
74915;BMP280;63475;45.140;-75.616;2023-04-15T03:09:04;100311.34;;;15.77
74915;BMP280;63475;45.140;-75.616;2023-04-15T03:10:06;100314.44;;;15.75
74915;BMP280;63475;45.140;-75.616;2023-04-15T03:11:07;100306.28;;;15.70
74915;BMP280;63475;45.140;-75.616;2023-04-15T03:12:08;100302.56;;;15.58
74915;BMP280;63475;45.140;-75.616;2023-04-15T03:13:09;100311.34;;;15.68
74915;BMP280;63475;45.140;-75.616;2023-04-15T03:14:10;100310.28;;;15.65
74915;BMP280;63475;45.140;-75.616;2023-04-15T03:15:11;100304.66;;;15.63
74915;BMP280;63475;45.140;-75.616;2023-04-15T03:16:12;100310.88;;;15.60
74915;BMP280;63475;45.140;-75.616;2023-04-15T03:17:13;100272.84;;;15.29
74915;BMP280;63475;45.140;-75.616;2023-04-15T03:18:14;100308.81;;;15.55
74915;BMP280;63475;45.140;-75.616;2023-04-15T03:19:15;100307.31;;;15.54
74915;BMP280;63475;45.140;-75.616;2023-04-15T03:20:16;100282.50;;;15.35
74915;BMP280;63475;45.140;-75.616;2023-04-15T03:21:17;100307.91;;;15.49
74915;BMP280;63475;45.140;-75.616;2023-04-15T03:22:19;100308.75;;;15.46
74915;BMP280;63475;45.140;-75.616;2023-04-15T03:23:20;100314.09;;;15.46
74915;BMP280;63475;45.140;-75.616;2023-04-15T03:24:21;100315.72;;;15.43
74915;BMP280;63475;45.140;-75.616;2023-04-15T03:25:22;100304.59;;;15.36
74915;BMP280;63475;45.140;-75.616;2023-04-15T03:26:27;100311.44;;;15.37
74915;BMP280;63475;45.140;-75.616;2023-04-15T03:27:28;100308.88;;;15.33
74915;BMP280;63475;45.140;-75.616;2023-04-15T03:28:29;100314.22;;;15.33
74915;BMP280;63475;45.140;-75.616;2023-04-15T03:29:30;100315.53;;;15.29
74915;BMP280;63475;45.140;-75.616;2023-04-15T03:30:31;100314.94;;;15.25
74915;BMP280;63475;45.140;-75.616;2023-04-15T03:31:32;100306.63;;;15.23
74915;BMP280;63475;45.140;-75.616;2023-04-15T03:32:33;100310.94;;;15.20
74915;BMP280;63475;45.140;-75.616;2023-04-15T03:33:34;100315.97;;;15.18
74915;BMP280;63475;45.140;-75.616;2023-04-15T03:34:35;100307.91;;;15.09
74915;BMP280;63475;45.140;-75.616;2023-04-15T03:35:36;100316.13;;;15.14
74915;BMP280;63475;45.140;-75.616;2023-04-15T03:36:37;100311.22;;;15.13
74915;BMP280;63475;45.140;-75.616;2023-04-15T03:37:38;100299.00;;;15.03
74915;BMP280;63475;45.140;-75.616;2023-04-15T03:38:39;100308.50;;;15.04
74915;BMP280;63475;45.140;-75.616;2023-04-15T03:39:40;100316.50;;;15.04
74915;BMP280;63475;45.140;-75.616;2023-04-15T03:40:42;100311.91;;;15.04
74915;BMP280;63475;45.140;-75.616;2023-04-15T03:41:43;100312.78;;;15.01
74915;BMP280;63475;45.140;-75.616;2023-04-15T03:42:44;100315.59;;;14.98
74915;BMP280;63475;45.140;-75.616;2023-04-15T03:43:45;100300.31;;;14.89
74915;BMP280;63475;45.140;-75.616;2023-04-15T03:44:46;100312.31;;;14.94
74915;BMP280;63475;45.140;-75.616;2023-04-15T03:45:47;100316.91;;;14.93
74915;BMP280;63475;45.140;-75.616;2023-04-15T03:46:48;100315.88;;;14.91
74915;BMP280;63475;45.140;-75.616;2023-04-15T03:47:49;100315.88;;;14.91
74915;BMP280;63475;45.140;-75.616;2023-04-15T03:48:50;100316.31;;;14.89
74915;BMP280;63475;45.140;-75.616;2023-04-15T03:49:50;100305.03;;;14.85
74915;BMP280;63475;45.140;-75.616;2023-04-15T03:50:51;100315.06;;;14.81
74915;BMP280;63475;45.140;-75.616;2023-04-15T03:51:52;100310.63;;;14.78
74915;BMP280;63475;45.140;-75.616;2023-04-15T03:52:53;100309.09;;;14.77
74915;BMP280;63475;45.140;-75.616;2023-04-15T03:53:54;100308.06;;;14.74
74915;BMP280;63475;45.140;-75.616;2023-04-15T03:54:55;100293.50;;;14.66
74915;BMP280;63475;45.140;-75.616;2023-04-15T03:55:56;100309.66;;;14.72
74915;BMP280;63475;45.140;-75.616;2023-04-15T03:56:57;100306.72;;;14.70
74915;BMP280;63475;45.140;-75.616;2023-04-15T03:57:58;100304.91;;;14.67
74915;BMP280;63475;45.140;-75.616;2023-04-15T03:58:59;100310.81;;;14.62
74915;BMP280;63475;45.140;-75.616;2023-04-15T04:00:00;100305.91;;;14.60
74915;BMP280;63475;45.140;-75.616;2023-04-15T04:01:00;100298.31;;;14.50
74915;BMP280;63475;45.140;-75.616;2023-04-15T04:02:01;100290.03;;;14.48
74915;BMP280;63475;45.140;-75.616;2023-04-15T04:03:02;100306.19;;;14.53
74915;BMP280;63475;45.140;-75.616;2023-04-15T04:04:03;100308.22;;;14.49
74915;BMP280;63475;45.140;-75.616;2023-04-15T04:05:04;100308.53;;;14.51
74915;BMP280;63475;45.140;-75.616;2023-04-15T04:06:05;100303.03;;;14.46
74915;BMP280;63475;45.140;-75.616;2023-04-15T04:07:06;100305.69;;;14.46
74915;BMP280;63475;45.140;-75.616;2023-04-15T04:08:07;100295.06;;;14.33
74915;BMP280;63475;45.140;-75.616;2023-04-15T04:09:08;100288.84;;;14.27
74915;BMP280;63475;45.140;-75.616;2023-04-15T04:10:09;100316.56;;;14.38
74915;BMP280;63475;45.140;-75.616;2023-04-15T04:11:10;100314.38;;;14.37
74915;BMP280;63475;45.140;-75.616;2023-04-15T04:12:11;100312.97;;;14.32
74915;BMP280;63475;45.140;-75.616;2023-04-15T04:13:12;100314.47;;;14.33
74915;BMP280;63475;45.140;-75.616;2023-04-15T04:14:13;100312.81;;;14.27
74915;BMP280;63475;45.140;-75.616;2023-04-15T04:15:14;100324.50;;;14.29
74915;BMP280;63475;45.140;-75.616;2023-04-15T04:16:15;100321.84;;;14.29
74915;BMP280;63475;45.140;-75.616;2023-04-15T04:17:16;100323.91;;;14.25
74915;BMP280;63475;45.140;-75.616;2023-04-15T04:18:17;100325.94;;;14.21
74915;BMP280;63475;45.140;-75.616;2023-04-15T04:19:18;100318.06;;;14.18
74915;BMP280;63475;45.140;-75.616;2023-04-15T04:20:19;100307.34;;;14.09
74915;BMP280;63475;45.140;-75.616;2023-04-15T04:21:20;100294.66;;;14.00
74915;BMP280;63475;45.140;-75.616;2023-04-15T04:22:22;100324.28;;;14.15
74915;BMP280;63475;45.140;-75.616;2023-04-15T04:23:26;100316.38;;;14.11
74915;BMP280;63475;45.140;-75.616;2023-04-15T04:24:27;100315.34;;;14.09
74915;BMP280;63475;45.140;-75.616;2023-04-15T04:25:28;100319.56;;;14.06
74915;BMP280;63475;45.140;-75.616;2023-04-15T04:26:29;100320.03;;;14.05
74915;BMP280;63475;45.140;-75.616;2023-04-15T04:27:29;100322.78;;;14.01
74915;BMP280;63475;45.140;-75.616;2023-04-15T04:28:30;100323.97;;;14.00
74915;BMP280;63475;45.140;-75.616;2023-04-15T04:29:31;100314.31;;;13.93
74915;BMP280;63475;45.140;-75.616;2023-04-15T04:30:32;100323.34;;;13.96
74915;BMP280;63475;45.140;-75.616;2023-04-15T04:31:35;100324.22;;;13.93
74915;BMP280;63475;45.140;-75.616;2023-04-15T04:32:36;100324.09;;;13.96
74915;BMP280;63475;45.140;-75.616;2023-04-15T04:33:37;100320.38;;;13.94
74915;BMP280;63475;45.140;-75.616;2023-04-15T04:34:38;100316.03;;;13.87
74915;BMP280;63475;45.140;-75.616;2023-04-15T04:35:39;100299.69;;;13.76
74915;BMP280;63475;45.140;-75.616;2023-04-15T04:36:40;100320.16;;;13.88
74915;BMP280;63475;45.140;-75.616;2023-04-15T04:37:41;100318.81;;;13.84
74915;BMP280;63475;45.140;-75.616;2023-04-15T04:38:42;100319.69;;;13.81
74915;BMP280;63475;45.140;-75.616;2023-04-15T04:39:43;100323.84;;;13.82
74915;BMP280;63475;45.140;-75.616;2023-04-15T04:40:44;100311.06;;;13.77
74915;BMP280;63475;45.140;-75.616;2023-04-15T04:41:45;100291.91;;;13.56
74915;BMP280;63475;45.140;-75.616;2023-04-15T04:42:46;100255.63;;;13.37
74915;BMP280;63475;45.140;-75.616;2023-04-15T04:43:47;100314.97;;;13.72
74915;BMP280;63475;45.140;-75.616;2023-04-15T04:44:48;100311.28;;;13.70
74915;BMP280;63475;45.140;-75.616;2023-04-15T04:45:49;100306.91;;;13.63
74915;BMP280;63475;45.140;-75.616;2023-04-15T04:46:50;100308.72;;;13.66
74915;BMP280;63475;45.140;-75.616;2023-04-15T04:47:51;100286.19;;;13.45
74915;BMP280;63475;45.140;-75.616;2023-04-15T04:48:52;100313.09;;;13.60
74915;BMP280;63475;45.140;-75.616;2023-04-15T04:49:53;100312.38;;;13.60
74915;BMP280;63475;45.140;-75.616;2023-04-15T04:50:54;100320.78;;;13.58
74915;BMP280;63475;45.140;-75.616;2023-04-15T04:51:56;100306.38;;;13.55
74915;BMP280;63475;45.140;-75.616;2023-04-15T04:52:57;100318.66;;;13.53
74915;BMP280;63475;45.140;-75.616;2023-04-15T04:53:58;100314.91;;;13.50
74915;BMP280;63475;45.140;-75.616;2023-04-15T04:54:59;100296.72;;;13.36
74915;BMP280;63475;45.140;-75.616;2023-04-15T04:56:00;100300.78;;;13.41
74915;BMP280;63475;45.140;-75.616;2023-04-15T04:57:01;100294.59;;;13.31
74915;BMP280;63475;45.140;-75.616;2023-04-15T04:58:02;100312.81;;;13.45
74915;BMP280;63475;45.140;-75.616;2023-04-15T04:59:03;100300.38;;;13.42
74915;BMP280;63475;45.140;-75.616;2023-04-15T05:00:05;100305.38;;;13.40
74915;BMP280;63475;45.140;-75.616;2023-04-15T05:01:07;100302.78;;;13.37
74915;BMP280;63475;45.140;-75.616;2023-04-15T05:02:09;100300.56;;;13.35
74915;BMP280;63475;45.140;-75.616;2023-04-15T05:03:10;100308.84;;;13.37
74915;BMP280;63475;45.140;-75.616;2023-04-15T05:04:11;100297.03;;;13.26
74915;BMP280;63475;45.140;-75.616;2023-04-15T05:05:12;100294.06;;;13.24
74915;BMP280;63475;45.140;-75.616;2023-04-15T05:06:13;100285.03;;;13.21
74915;BMP280;63475;45.140;-75.616;2023-04-15T05:07:14;100303.00;;;13.30
74915;BMP280;63475;45.140;-75.616;2023-04-15T05:08:15;100311.00;;;13.30
74915;BMP280;63475;45.140;-75.616;2023-04-15T05:09:16;100311.09;;;13.26
74915;BMP280;63475;45.140;-75.616;2023-04-15T05:10:17;100309.63;;;13.25
74915;BMP280;63475;45.140;-75.616;2023-04-15T05:11:18;100297.06;;;13.13
74915;BMP280;63475;45.140;-75.616;2023-04-15T05:12:19;100306.00;;;13.19
74915;BMP280;63475;45.140;-75.616;2023-04-15T05:13:20;100309.50;;;13.16
74915;BMP280;63475;45.140;-75.616;2023-04-15T05:14:21;100301.53;;;13.16
74915;BMP280;63475;45.140;-75.616;2023-04-15T05:15:22;100302.38;;;13.13
74915;BMP280;63475;45.140;-75.616;2023-04-15T05:16:23;100294.81;;;13.11
74915;BMP280;63475;45.140;-75.616;2023-04-15T05:17:25;100294.81;;;13.11
74915;BMP280;63475;45.140;-75.616;2023-04-15T05:18:26;100287.88;;;13.01
74915;BMP280;63475;45.140;-75.616;2023-04-15T05:19:27;100295.56;;;13.12
74915;BMP280;63475;45.140;-75.616;2023-04-15T05:20:28;100300.97;;;13.08
74915;BMP280;63475;45.140;-75.616;2023-04-15T05:21:29;100277.88;;;12.93
74915;BMP280;63475;45.140;-75.616;2023-04-15T05:22:31;100304.09;;;13.07
74915;BMP280;63475;45.140;-75.616;2023-04-15T05:23:32;100296.16;;;13.03
74915;BMP280;63475;45.140;-75.616;2023-04-15T05:24:33;100284.38;;;12.92
74915;BMP280;63475;45.140;-75.616;2023-04-15T05:25:34;100270.97;;;12.83
74915;BMP280;63475;45.140;-75.616;2023-04-15T05:26:35;100294.47;;;12.97
74915;BMP280;63475;45.140;-75.616;2023-04-15T05:27:36;100293.41;;;12.94
74915;BMP280;63475;45.140;-75.616;2023-04-15T05:28:37;100291.19;;;12.93
74915;BMP280;63475;45.140;-75.616;2023-04-15T05:29:38;100276.81;;;12.77
74915;BMP280;63475;45.140;-75.616;2023-04-15T05:30:39;100300.72;;;12.90
74915;BMP280;63475;45.140;-75.616;2023-04-15T05:31:40;100291.72;;;12.88
74915;BMP280;63475;45.140;-75.616;2023-04-15T05:32:41;100295.19;;;12.85
74915;BMP280;63475;45.140;-75.616;2023-04-15T05:33:42;100294.91;;;12.83
74915;BMP280;63475;45.140;-75.616;2023-04-15T05:34:43;100303.28;;;12.81
74915;BMP280;63475;45.140;-75.616;2023-04-15T05:35:44;100296.81;;;12.82
74915;BMP280;63475;45.140;-75.616;2023-04-15T05:36:45;100298.38;;;12.79
74915;BMP280;63475;45.140;-75.616;2023-04-15T05:37:46;100271.25;;;12.59